Flight Track Log - Related Links

Times and Time Zones

All times are in EDT time to prevent confusion due to time zone crossing. See the TMC875 flight status page for this flight to view local times or setup timezone preferences in your user account.

Time Position Orientation Groundspeed Altitude Reporting Facility
EDT Latitude Longitude Course Direction KTS MPH feet Rate Location/Type
Wed 10:17:39 PM 30.5158 -91.1100 48° Northeast 180 207 3,100  Level Houston Center
Wed 10:18:40 PM 30.5483 -91.0511 57° Northeast 223 257 5,500 2,557 Climbing Houston Center
Wed 10:19:41 PM 30.5900 -90.9769 57° Northeast 272 313 8,300 2,754 Climbing Houston Center
Wed 10:20:42 PM 30.6306 -90.8942 60° Northeast 294 338 11,100 2,656 Climbing Houston Center
Wed 10:21:43 PM 30.6775 -90.7967 61° Northeast 310 357 13,700 2,607 Climbing Houston Center
Wed 10:22:44 PM 30.7333 -90.7006 56° Northeast 322 371 16,400 2,293 Climbing Houston Center
Wed 10:23:00 PM 31.0084 -90.5287 48° Northeast  Level Estimated
Wed 10:23:46 PM 30.7942 -90.6192 49° Northeast 329 379 18,400  Level Houston Center
Wed 10:24:47 PM 30.8581 -90.5311 50° Northeast 350 403 20,100 1,672 Climbing Houston Center
Wed 10:25:48 PM 30.9250 -90.4400 49° Northeast 366 421 21,800 1,672 Climbing Houston Center
Wed 10:26:49 PM 30.9956 -90.3442 49° Northeast 383 441 23,500 1,672 Climbing Houston Center
Wed 10:27:50 PM 31.0672 -90.2442 50° Northeast 398 458 25,200 1,574 Climbing Houston Center
Wed 10:28:51 PM 31.1411 -90.1425 50° Northeast 407 468 26,700 1,317 Climbing Houston Center
Wed 10:29:53 PM 31.2181 -90.0353 50° Northeast 424 488 27,900 1,220 Climbing Houston Center
Wed 10:30:54 PM 31.2972 -89.9267 50° Northeast 435 501 29,200 1,230 Climbing Houston Center
Wed 10:31:55 PM 31.3769 -89.8156 50° Northeast 444 511 30,400 1,180 Climbing Houston Center
Wed 10:32:56 PM 31.4569 -89.7042 50° Northeast 446 513 31,600 1,230 Climbing Houston Center
Wed 10:33:57 PM 31.5372 -89.5931 50° Northeast 446 513 32,900 1,328 Climbing Houston Center
Wed 10:34:58 PM 31.6272 -89.4647 51° Northeast 447 514 34,300 1,279 Climbing Houston Center
Wed 10:35:59 PM 31.7061 -89.3556 50° Northeast 439 505 35,500 1,139 Climbing Houston Center
Wed 10:36:17 PM 31.7261 -89.3267 51° Northeast 438 504 35,800 1,154 Climbing Memphis Center
Wed 10:37:17 PM 31.8025 -89.2183 50° Northeast 433 498 37,000 1,200 Climbing Memphis Center
Wed 10:38:17 PM 31.8725 -89.1197 50° Northeast 416 479 38,200 1,150 Climbing Memphis Center
Wed 10:39:17 PM 31.9525 -89.0033 51° Northeast 409 471 39,300 900 Climbing Memphis Center
Wed 10:40:17 PM 32.0286 -88.8994 49° Northeast 409 471 40,000 550 Climbing Memphis Center
Wed 10:41:17 PM 32.0964 -88.8003 51° Northeast 403 464 40,400 400 Climbing Memphis Center
Wed 10:42:17 PM 32.1681 -88.7008 50° Northeast 403 464 40,800 300 Climbing Memphis Center
Wed 10:43:17 PM 32.2378 -88.5989 51° Northeast 403 464 41,000 100 Climbing Memphis Center
Wed 10:44:17 PM 32.3031 -88.5042 51° Northeast 403 464 41,000  Level Memphis Center
Wed 10:46:41 PM 32.4869 -88.2444 50° Northeast 439 505 41,000  Level Atlanta Center
Wed 10:47:41 PM 32.5636 -88.1325 51° Northeast 439 505 41,000  Level Atlanta Center
Wed 10:48:41 PM 32.6447 -88.0178 50° Northeast 439 505 41,000  Level Atlanta Center
Wed 10:49:41 PM 32.7217 -87.8978 53° Northeast 445 512 41,000  Level Atlanta Center
Wed 10:50:41 PM 32.7981 -87.7825 52° Northeast 451 519 41,000  Level Atlanta Center
Wed 10:51:41 PM 32.8767 -87.6697 50° Northeast 446 513 41,000  Level Atlanta Center
Wed 10:52:41 PM 32.9531 -87.5517 52° Northeast 446 513 41,000  Level Atlanta Center
Wed 10:53:41 PM 33.0381 -87.4261 51° Northeast 444 511 41,000  Level Atlanta Center
Wed 10:54:41 PM 33.1142 -87.3075 53° Northeast 450 518 41,000  Level Atlanta Center
Wed 10:55:41 PM 33.1925 -87.1914 51° Northeast 455 524 41,000  Level Atlanta Center
Wed 10:56:41 PM 33.2683 -87.0747 52° Northeast 455 524 41,000  Level Atlanta Center
Wed 10:57:41 PM 33.3486 -86.9583 50° Northeast 455 524 41,000  Level Atlanta Center
Wed 10:58:41 PM 33.4264 -86.8414 51° Northeast 455 524 41,000  Level Atlanta Center
Wed 10:59:41 PM 33.5042 -86.7219 52° Northeast 455 524 41,000  Level Atlanta Center
Wed 11:00:41 PM 33.5839 -86.6047 51° Northeast 455 524 41,000  Level Atlanta Center
Wed 11:01:41 PM 33.6614 -86.4847 52° Northeast 455 524 41,000  Level Atlanta Center
Wed 11:02:41 PM 33.7389 -86.3669 52° Northeast 455 524 41,000  Level Atlanta Center
Wed 11:03:41 PM 33.8161 -86.2492 52° Northeast 455 524 41,000  Level Atlanta Center
Wed 11:04:41 PM 33.8956 -86.1261 52° Northeast 455 524 41,000  Level Atlanta Center
Wed 11:05:41 PM 33.9747 -86.0053 52° Northeast 455 524 41,000  Level Atlanta Center
Wed 11:06:41 PM 34.0517 -85.8867 52° Northeast 455 524 41,000  Level Atlanta Center
Wed 11:07:41 PM 34.1242 -85.7828 50° Northeast 449 517 41,000  Level Atlanta Center
Wed 11:08:41 PM 34.2008 -85.6664 51° Northeast 444 511 41,000  Level Atlanta Center
Wed 11:09:41 PM 34.2778 -85.5422 53° Northeast 450 518 41,000  Level Atlanta Center
Wed 11:10:41 PM 34.3542 -85.4228 52° Northeast 450 518 41,000  Level Atlanta Center
Wed 11:11:41 PM 34.4306 -85.2956 54° Northeast 450 518 41,000  Level Atlanta Center
Wed 11:12:41 PM 34.5197 -85.1631 51° Northeast 455 524 41,000  Level Atlanta Center
Wed 11:13:41 PM 34.5958 -85.0406 53° Northeast 461 531 41,000  Level Atlanta Center
Wed 11:14:41 PM 34.6572 -84.9428 53° Northeast 461 531 41,000  Level Atlanta Center
Wed 11:15:41 PM 34.7394 -84.8047 54° Northeast 455 524 41,000  Level Atlanta Center
Wed 11:16:41 PM 34.8194 -84.6814 52° Northeast 455 524 41,000  Level Atlanta Center
Wed 11:17:41 PM 34.8950 -84.5553 54° Northeast 455 524 41,000  Level Atlanta Center
Wed 11:18:41 PM 34.9728 -84.4317 52° Northeast 460 529 41,000  Level Atlanta Center
Wed 11:19:41 PM 35.0503 -84.3025 54° Northeast 460 529 41,000  Level Atlanta Center
Wed 11:20:41 PM 35.1278 -84.1783 53° Northeast 460 529 41,000  Level Atlanta Center
Wed 11:21:41 PM 35.2072 -84.0514 53° Northeast 460 529 41,000  Level Atlanta Center
Wed 11:22:41 PM 35.2842 -83.9242 53° Northeast 460 529 41,000  Level Atlanta Center
Wed 11:23:41 PM 35.3614 -83.7994 53° Northeast 460 529 41,000  Level Atlanta Center
Wed 11:24:41 PM 35.4381 -83.6717 54° Northeast 460 529 41,000  Level Atlanta Center
Wed 11:25:41 PM 35.5169 -83.5439 53° Northeast 460 529 41,000  Level Atlanta Center
Wed 11:26:41 PM 35.5936 -83.4156 54° Northeast 460 529 41,000  Level Atlanta Center
Wed 11:27:41 PM 35.6803 -83.2717 53° Northeast 466 536 41,000  Level Atlanta Center
Wed 11:28:41 PM 35.7547 -83.1431 54° Northeast 461 531 41,000  Level Atlanta Center
Wed 11:29:41 PM 35.8328 -83.0117 54° Northeast 461 531 41,000  Level Atlanta Center
Wed 11:30:41 PM 35.9089 -82.8825 54° Northeast 466 536 41,000  Level Atlanta Center
Wed 11:31:41 PM 35.9869 -82.7531 53° Northeast 461 531 41,000  Level Atlanta Center
Wed 11:32:41 PM 36.0625 -82.6233 54° Northeast 461 531 41,000  Level Atlanta Center
Wed 11:33:41 PM 36.1383 -82.4961 54° Northeast 461 531 41,000  Level Atlanta Center
Wed 11:34:41 PM 36.2136 -82.3661 54° Northeast 461 531 41,000  Level Atlanta Center
Wed 11:35:41 PM 36.2889 -82.2331 55° Northeast 461 531 41,000  Level Atlanta Center
Wed 11:36:41 PM 36.3664 -82.1050 53° Northeast 461 531 41,000  Level Atlanta Center
Wed 11:37:41 PM 36.4414 -81.9767 54° Northeast 456 525 41,000  Level Atlanta Center
Wed 11:38:41 PM 36.5122 -81.8586 53° Northeast 461 531 41,000  Level Atlanta Center
Wed 11:39:41 PM 36.5911 -81.7169 55° Northeast 456 525 41,000  Level Atlanta Center
Wed 11:40:41 PM 36.6656 -81.5853 55° Northeast 456 525 41,000  Level Atlanta Center
Wed 11:41:41 PM 36.7322 -81.4692 54° Northeast 462 532 41,000  Level Atlanta Center
Wed 11:42:41 PM 36.8083 -81.3319 55° Northeast 444 511 41,000  Level Atlanta Center
Wed 11:44:26 PM 36.9367 -81.1061 55° Northeast 441 507 41,000  Level Washington Center
Wed 11:45:26 PM 37.0094 -80.9736 55° Northeast 441 507 41,000  Level Washington Center
Wed 11:46:26 PM 37.0817 -80.8511 54° Northeast 446 513 41,000  Level Washington Center
Wed 11:47:26 PM 37.1494 -80.7306 55° Northeast 453 521 41,000  Level Washington Center
Wed 11:48:26 PM 37.2194 -80.6022 56° Northeast 453 521 41,000  Level Washington Center
Wed 11:49:26 PM 37.2917 -80.4711 55° Northeast 453 521 41,000  Level Washington Center
Wed 11:50:26 PM 37.3658 -80.3400 55° Northeast 453 521 41,000  Level Washington Center
Wed 11:51:26 PM 37.4444 -80.1958 55° Northeast 453 521 41,000  Level Washington Center
Wed 11:52:26 PM 37.5206 -80.0617 54° Northeast 453 521 41,000  Level Washington Center
Wed 11:53:26 PM 37.5922 -79.9294 56° Northeast 453 521 41,000  Level Washington Center
Wed 11:54:26 PM 37.6636 -79.7947 56° Northeast 460 529 41,000  Level Washington Center
Wed 11:55:26 PM 37.7392 -79.6622 54° Northeast 460 529 41,000  Level Washington Center
Wed 11:56:26 PM 37.8125 -79.5269 56° Northeast 460 529 41,000  Level Washington Center
Wed 11:57:26 PM 37.8769 -79.4039 56° Northeast 465 535 41,000  Level Washington Center
Wed 11:58:26 PM 37.9500 -79.2706 55° Northeast 465 535 41,000  Level Washington Center
Wed 11:59:26 PM 38.0208 -79.1344 57° Northeast 465 535 41,000  Level Washington Center
Thu 12:00:26 AM 38.0914 -79.0006 56° Northeast 460 529 41,000  Level Washington Center
Thu 12:01:26 AM 38.1686 -78.8536 56° Northeast 454 522 41,000  Level Washington Center
Thu 12:02:26 AM 38.2389 -78.7217 56° Northeast 454 522 41,000  Level Washington Center
Thu 12:03:26 AM 38.2961 -78.6050 58° Northeast 444 511 41,000  Level Washington Center
Thu 12:04:26 AM 38.3639 -78.4728 57° Northeast 444 511 41,000  Level Washington Center
Thu 12:05:26 AM 38.4317 -78.3403 57° Northeast 439 505 41,000  Level Washington Center
Thu 12:06:26 AM 38.5014 -78.2075 56° Northeast 439 505 41,000  Level Washington Center
Thu 12:07:26 AM 38.5689 -78.0744 57° Northeast 445 512 41,000  Level Washington Center
Thu 12:08:26 AM 38.6361 -77.9411 57° Northeast 450 518 41,000  Level Washington Center
Thu 12:09:26 AM 38.7097 -77.7919 58° Northeast 450 518 41,000  Level Washington Center
Thu 12:10:26 AM 38.7789 -77.6556 57° Northeast 455 524 41,000  Level Washington Center
Thu 12:11:26 AM 38.8481 -77.5189 57° Northeast 450 518 41,000  Level Washington Center
Thu 12:12:26 AM 38.9167 -77.3844 57° Northeast 450 518 41,000  Level Washington Center
Thu 12:13:26 AM 38.9853 -77.2472 57° Northeast 450 518 41,000  Level Washington Center
Thu 12:15:45 AM 39.1342 -76.9492 57° Northeast 446 513 41,000  Level New York Center
Thu 12:16:46 AM 39.2017 -76.8156 57° Northeast 446 513 41,000  Level New York Center
Thu 12:17:45 AM 39.2669 -76.6789 58° Northeast 446 513 41,000  Level New York Center
Thu 12:18:45 AM 39.3342 -76.5450 57° Northeast 441 507 41,000  Level New York Center
Thu 12:19:47 AM 39.3989 -76.4106 58° Northeast 441 507 41,000  Level New York Center
Thu 12:20:47 AM 39.4639 -76.2758 58° Northeast 441 507 41,000  Level New York Center
Thu 12:21:45 AM 39.5394 -76.1256 57° Northeast 441 507 41,000  Level New York Center
Thu 12:22:46 AM 39.6061 -75.9878 58° Northeast 441 507 41,000  Level New York Center
Thu 12:23:48 AM 39.6747 -75.8525 57° Northeast 446 513 41,000  Level New York Center
Thu 12:24:47 AM 39.7408 -75.7142 58° Northeast 446 513 41,000  Level New York Center
Thu 12:25:47 AM 39.8114 -75.5758 56° Northeast 446 513 41,000  Level New York Center
Thu 12:26:47 AM 39.8794 -75.4372 57° Northeast 446 513 41,000  Level New York Center
Thu 12:27:48 AM 39.9494 -75.2983 57° Northeast 446 513 41,000  Level New York Center
Thu 12:28:45 AM 40.0194 -75.1592 57° Northeast 446 513 41,000  Level New York Center
Thu 12:29:45 AM 40.0872 -75.0142 59° Northeast 451 519 41,000 -49 Level New York Center
Thu 12:30:47 AM 40.1525 -74.8769 58° Northeast 451 519 40,900  Descending New York Center
Thu 12:31:45 AM 40.2156 -74.7394 59° Northeast 445 512 41,000 29 Climbing New York Center
Thu 12:34:13 AM 40.3786 -74.3961 58° Northeast 457 526 41,000  Level Boston Center
Thu 12:35:14 AM 40.4433 -74.2561 59° Northeast 452 520 41,000  Level Boston Center
Thu 12:36:13 AM 40.5122 -74.1161 57° Northeast 447 514 41,000  Level Boston Center
Thu 12:37:13 AM 40.5725 -73.9947 57° Northeast 447 514 41,000  Level Boston Center
Thu 12:38:13 AM 40.6389 -73.8567 58° Northeast 447 514 41,000  Level Boston Center
Thu 12:39:14 AM 40.7031 -73.7131 59° Northeast 453 521 41,000  Level Boston Center
Thu 12:40:13 AM 40.7736 -73.5472 61° Northeast 458 527 41,000  Level Boston Center
Thu 12:41:13 AM 40.8394 -73.4058 58° Northeast 458 527 41,000  Level Boston Center
Thu 12:42:13 AM 40.9008 -73.2803 57° Northeast 458 527 41,000  Level Boston Center
Thu 12:43:15 AM 40.9664 -73.1383 59° Northeast 452 520 41,000  Level Boston Center
Thu 12:44:13 AM 41.0319 -72.9931 59° Northeast 452 520 41,000 -763 Level Boston Center
Thu 12:45:13 AM 41.0972 -72.8506 59° Northeast 452 520 39,500 -2,150 Descending Boston Center
Thu 12:46:13 AM 41.1622 -72.7103 58° Northeast 447 514 36,700 -2,800 Descending Boston Center
Thu 12:47:13 AM 41.2228 -72.5697 60° Northeast 447 514 33,900 -3,050 Descending Boston Center
Thu 12:48:13 AM 41.2981 -72.4069 58° Northeast 461 531 30,600 -2,800 Descending Boston Center
Thu 12:49:13 AM 41.3478 -72.2881 61° Northeast 461 531 28,300 -2,700 Descending Boston Center
Thu 12:50:13 AM 41.4206 -72.1300 58° Northeast 461 531 25,200 -3,000 Descending Boston Center
Thu 12:51:13 AM 41.4825 -71.9883 60° Northeast 456 525 22,300 -3,050 Descending Boston Center
Thu 12:52:13 AM 41.5486 -71.8381 60° Northeast 438 504 19,100 -2,750 Descending Boston Center
Thu 12:53:13 AM 41.6061 -71.7072 60° Northeast 418 481 16,800 -2,450 Descending Boston Center
Thu 12:54:13 AM 41.6553 -71.5900 61° Northeast 407 468 14,200 -2,600 Descending Boston Center
Thu 12:55:13 AM 41.7144 -71.4500 60° Northeast 394 453 11,600 -1,600 Descending Boston Center
Thu 12:56:13 AM 41.7614 -71.3436 59° Northeast 375 432 11,000 -298 Descending Boston Center
Thu 12:57:14 AM 41.8186 -71.2089 60° Northeast 375 432 11,000  Level Boston Center
Thu 12:58:18 AM 41.8833 -71.0667 59° Northeast 386 444 11,000  Level KA90
Thu 12:59:24 AM 41.9500 -70.9333 56° Northeast 383 441 11,000  Level KA90
Thu 01:00:15 AM 41.9808 -70.8567 62° Northeast 376 433 11,000 -661 Level Boston Center
Thu 01:01:13 AM 42.0314 -70.7492 58° Northeast 343 395 9,800 -1,220 Descending Boston Center
Thu 01:02:13 AM 42.0781 -70.6639 54° Northeast 305 351 8,600 -1,550 Descending Boston Center
Thu 01:03:13 AM 42.1528 -70.6394 14° North 263 303 6,700 -1,900 Descending Boston Center
Thu 01:04:13 AM 42.2158 -70.6711 340° North 226 260 4,800 -1,350 Descending Boston Center
Thu 01:05:13 AM 42.2686 -70.7286 321° Northwest 220 253 4,000 -650 Descending Boston Center
Thu 01:06:13 AM 42.3031 -70.8036 302° West 231 266 3,500 -900 Descending Boston Center
Thu 01:07:13 AM 42.3208 -70.8733 289° West 208 239 2,200 -1,000 Descending Boston Center
Thu 01:08:13 AM 42.3342 -70.9431 285° West 207 238 1,500 -850 Descending Boston Center
Thu 01:09:13 AM 42.3450 -70.9739 295° West 162 186 500 -1,000 Descending Boston Center

Login

Don't have an account? Register now (free) for customized features, flight alerts, and more!